createdAt,value
2023-03-03T00:01:34.786Z,43.97
2023-03-03T00:04:37.363Z,44.22
2023-03-03T00:07:39.874Z,42.65
2023-03-03T00:10:42.207Z,38.38
2023-03-03T00:13:49.029Z,40.92
2023-03-03T00:16:51.422Z,40.28
2023-03-03T00:19:54.578Z,40.15
2023-03-03T00:22:58.316Z,33.28
2023-03-03T00:26:00.970Z,38.13
2023-03-03T00:29:03.969Z,37.67
2023-03-03T00:32:26.414Z,31.80
2023-03-03T00:35:35.847Z,36.92
2023-03-03T00:38:38.825Z,36.65
2023-03-03T00:41:41.333Z,36.37
2023-03-03T00:44:44.788Z,36.88
2023-03-03T00:47:47.281Z,33.63
2023-03-03T00:50:50.776Z,36.28
2023-03-03T00:53:53.202Z,36.15
2023-03-03T00:56:55.510Z,34.83
2023-03-03T00:59:58.214Z,37.78
2023-03-03T01:03:07.055Z,27.33
2023-03-03T01:06:10.069Z,35.80
2023-03-03T01:09:12.790Z,37.53
2023-03-03T01:12:15.401Z,37.72
2023-03-03T01:15:18.380Z,33.50
2023-03-03T01:18:21.008Z,34.57
2023-03-03T01:21:23.758Z,33.60
2023-03-03T01:24:26.086Z,35.03
2023-03-03T01:27:28.787Z,35.22
2023-03-03T01:30:31.708Z,34.20
2023-03-03T01:33:35.296Z,36.30
2023-03-03T01:36:37.902Z,37.05
2023-03-03T01:39:40.217Z,38.17
2023-03-03T01:42:43.069Z,35.58
2023-03-03T01:45:48.178Z,36.55
2023-03-03T01:48:53.038Z,37.45
2023-03-03T01:51:58.280Z,38.03
2023-03-03T01:55:15.026Z,38.00
2023-03-03T01:58:24.299Z,37.42
2023-03-03T02:01:28.673Z,38.95
2023-03-03T02:04:32.570Z,42.65
2023-03-03T02:07:35.474Z,38.60
2023-03-03T02:10:38.120Z,32.90
2023-03-03T02:13:40.547Z,39.42
2023-03-03T02:16:43.440Z,35.30
2023-03-03T02:20:17.888Z,36.67
2023-03-03T02:23:26.765Z,35.40
2023-03-03T02:26:31.433Z,35.72
2023-03-03T02:29:38.767Z,35.65
2023-03-03T02:32:42.967Z,36.38
2023-03-03T02:35:45.432Z,36.47
2023-03-03T02:39:04.354Z,35.55
2023-03-03T02:42:09.789Z,33.58
2023-03-03T02:45:17.673Z,35.63
2023-03-03T02:48:20.608Z,27.75
2023-03-03T02:51:23.131Z,32.35
2023-03-03T02:54:27.228Z,33.40
2023-03-03T02:57:29.600Z,34.45
2023-03-03T03:00:32.544Z,34.20
2023-03-03T03:03:36.438Z,34.15
2023-03-03T03:06:41.287Z,33.92
2023-03-03T03:09:44.210Z,28.70
2023-03-03T03:12:46.604Z,32.92
2023-03-03T03:15:49.820Z,34.47
2023-03-03T03:18:52.293Z,32.53
2023-03-03T03:21:54.640Z,31.90
2023-03-03T03:24:57.689Z,32.58
2023-03-03T03:28:01.165Z,33.85
2023-03-03T03:31:05.059Z,29.90
2023-03-03T03:34:08.717Z,32.15
2023-03-03T03:37:11.043Z,32.70
2023-03-03T03:40:14.368Z,28.95
2023-03-03T03:43:16.913Z,32.35
2023-03-03T03:46:19.793Z,32.20
2023-03-03T03:49:22.341Z,33.67
2023-03-03T03:52:27.058Z,31.48
2023-03-03T03:55:30.050Z,24.27
2023-03-03T03:58:32.568Z,23.70
2023-03-03T04:01:39.044Z,33.60
2023-03-03T04:04:41.592Z,31.27
2023-03-03T04:07:44.101Z,29.92
2023-03-03T04:10:46.776Z,29.33
2023-03-03T04:13:49.198Z,30.77
2023-03-03T04:16:52.059Z,23.07
2023-03-03T04:19:54.598Z,30.23
2023-03-03T04:22:58.100Z,32.50
2023-03-03T04:26:01.687Z,31.42
2023-03-03T04:29:04.149Z,32.80
2023-03-03T04:32:06.667Z,31.48
2023-03-03T04:35:10.422Z,30.10
2023-03-03T04:38:16.473Z,33.60
2023-03-03T04:41:19.335Z,27.70
2023-03-03T04:44:22.400Z,33.13
2023-03-03T04:47:25.111Z,24.20
2023-03-03T04:50:28.389Z,26.88
2023-03-03T04:53:31.003Z,33.83
2023-03-03T04:56:33.301Z,32.08
2023-03-03T04:59:36.434Z,32.38
2023-03-03T05:02:38.938Z,26.73
2023-03-03T05:05:42.122Z,26.80
2023-03-03T05:08:44.473Z,31.48
2023-03-03T05:11:47.184Z,32.10
2023-03-03T05:14:49.580Z,30.77
2023-03-03T05:17:53.590Z,32.05
2023-03-03T05:20:56.179Z,30.60
2023-03-03T05:23:58.592Z,31.35
2023-03-03T05:27:01.162Z,28.85
2023-03-03T05:30:03.599Z,27.73
2023-03-03T05:33:06.747Z,30.25
2023-03-03T05:36:09.466Z,39.53
2023-03-03T05:39:11.883Z,30.92
2023-03-03T05:42:14.234Z,29.50
2023-03-03T05:45:16.716Z,28.05
2023-03-03T05:48:19.205Z,27.48
2023-03-03T05:51:21.587Z,23.52
2023-03-03T05:54:23.971Z,27.48
2023-03-03T05:57:26.296Z,22.88
2023-03-03T06:00:28.756Z,23.92
2023-03-03T06:03:31.911Z,25.13
2023-03-03T06:06:34.433Z,21.27
2023-03-03T06:09:37.242Z,26.15
2023-03-03T06:12:41.241Z,25.57
2023-03-03T06:15:44.015Z,26.23
2023-03-03T06:18:46.459Z,17.93
2023-03-03T06:21:48.873Z,23.40
2023-03-03T06:24:52.726Z,23.70
2023-03-03T06:27:55.003Z,21.17
2023-03-03T06:30:57.861Z,20.13
2023-03-03T06:34:00.248Z,19.53
2023-03-03T06:37:02.693Z,18.52
2023-03-03T06:40:06.627Z,17.65
2023-03-03T06:43:09.915Z,19.30
2023-03-03T06:46:12.833Z,17.92
2023-03-03T06:49:15.783Z,21.15
2023-03-03T06:52:26.917Z,21.15
2023-03-03T06:55:29.327Z,19.67
2023-03-03T06:58:32.134Z,19.33
2023-03-03T07:01:37.876Z,13.82
2023-03-03T07:04:40.318Z,19.73
2023-03-03T07:07:43.396Z,21.15
2023-03-03T07:10:48.700Z,16.52
2023-03-03T07:13:52.864Z,21.55
2023-03-03T07:17:02.047Z,22.00
2023-03-03T07:20:16.178Z,23.27
2023-03-03T07:23:42.620Z,23.50
2023-03-03T07:26:45.694Z,25.35
2023-03-03T07:29:49.969Z,27.73
2023-03-03T07:32:56.770Z,23.10
2023-03-03T07:36:00.319Z,27.60
2023-03-03T07:39:12.260Z,27.70
2023-03-03T07:42:30.114Z,24.45
2023-03-03T07:45:44.113Z,23.92
2023-03-03T07:48:46.791Z,19.90
2023-03-03T07:51:54.605Z,23.98
2023-03-03T07:54:58.902Z,23.40
2023-03-03T07:58:14.925Z,19.58
2023-03-03T08:01:40.020Z,17.98
2023-03-03T08:04:47.616Z,18.77
2023-03-03T08:07:52.877Z,17.30
2023-03-03T08:10:57.512Z,15.80
2023-03-03T08:14:00.382Z,13.50
2023-03-03T08:17:02.859Z,13.18
2023-03-03T08:20:43.661Z,13.38
2023-03-03T08:23:46.233Z,12.82
2023-03-03T08:26:48.645Z,13.05
2023-03-03T08:29:51.038Z,9.95
2023-03-03T08:32:53.331Z,10.73
2023-03-03T08:35:55.712Z,11.07
2023-03-03T08:38:58.189Z,11.65
2023-03-03T08:42:00.763Z,10.10
2023-03-03T08:45:03.156Z,10.55
2023-03-03T08:48:06.295Z,8.75
2023-03-03T08:51:08.746Z,8.32
2023-03-03T08:54:11.170Z,9.55
2023-03-03T08:57:13.480Z,9.82
2023-03-03T09:00:17.678Z,10.43
2023-03-03T09:03:20.152Z,11.70
2023-03-03T09:06:22.595Z,10.90
2023-03-03T09:09:25.417Z,8.98
2023-03-03T09:12:40.579Z,8.80
2023-03-03T09:15:43.436Z,9.38
2023-03-03T09:18:45.753Z,10.50
2023-03-03T09:21:48.209Z,9.40
2023-03-03T09:24:54.420Z,9.48
2023-03-03T09:27:56.795Z,9.20
2023-03-03T09:31:01.522Z,9.90
2023-03-03T09:34:14.689Z,9.75
2023-03-03T09:37:32.820Z,9.60
2023-03-03T09:40:48.477Z,12.85
2023-03-03T09:44:12.342Z,11.93
2023-03-03T09:47:33.358Z,9.00
2023-03-03T09:50:53.991Z,11.15
2023-03-03T09:54:23.985Z,11.18
2023-03-03T09:58:10.549Z,10.57
2023-03-03T10:01:37.628Z,10.98
2023-03-03T10:05:21.708Z,10.73
2023-03-03T10:08:31.710Z,10.48
2023-03-03T10:11:54.667Z,12.30
2023-03-03T10:15:15.593Z,11.73
2023-03-03T10:18:32.272Z,12.55
2023-03-03T10:22:06.861Z,12.63
2023-03-03T10:25:18.077Z,12.93
2023-03-03T10:28:32.319Z,16.15
2023-03-03T10:31:53.968Z,19.05
2023-03-03T10:35:14.424Z,17.15
2023-03-03T10:38:22.881Z,15.20
2023-03-03T10:41:44.647Z,17.25
2023-03-03T10:45:11.294Z,14.50
2023-03-03T10:48:22.954Z,12.52
2023-03-03T10:51:28.139Z,14.65
2023-03-03T10:54:36.298Z,13.85
2023-03-03T10:57:44.542Z,15.15
2023-03-03T11:01:09.775Z,16.20
2023-03-03T11:04:30.672Z,14.60
2023-03-03T11:07:45.718Z,12.70
2023-03-03T11:11:09.975Z,13.55
2023-03-03T11:14:30.646Z,15.10
2023-03-03T11:17:53.305Z,13.35
2023-03-03T11:21:17.029Z,12.90
2023-03-03T11:24:25.361Z,11.60
2023-03-03T11:27:55.864Z,11.98
2023-03-03T11:31:04.046Z,13.10
2023-03-03T11:34:25.120Z,13.40
2023-03-03T11:37:38.309Z,12.63
2023-03-03T11:40:52.534Z,12.98
2023-03-03T11:44:31.537Z,13.52
2023-03-03T11:48:00.447Z,12.00
2023-03-03T11:51:35.850Z,13.48
2023-03-03T11:54:47.891Z,12.70
2023-03-03T11:57:57.302Z,11.27
2023-03-03T12:01:12.062Z,11.73
2023-03-03T12:04:16.952Z,11.10
2023-03-03T12:07:28.674Z,12.38
2023-03-03T12:10:38.852Z,11.68
2023-03-03T12:13:55.934Z,11.60
2023-03-03T12:17:11.557Z,12.15
2023-03-03T12:20:43.136Z,14.45
2023-03-03T12:24:04.871Z,12.38
2023-03-03T12:27:15.780Z,12.45
2023-03-03T12:30:27.712Z,11.52
2023-03-03T12:34:04.264Z,12.77
2023-03-03T12:37:37.180Z,13.25
2023-03-03T12:41:17.045Z,12.20
2023-03-03T12:44:34.299Z,12.88
2023-03-03T12:47:49.138Z,13.95
2023-03-03T12:51:13.208Z,13.43
2023-03-03T12:54:54.120Z,13.27
2023-03-03T12:58:25.557Z,13.50
2023-03-03T13:01:28.667Z,13.77
2023-03-03T13:04:36.685Z,14.33
2023-03-03T13:07:46.375Z,13.95
2023-03-03T13:10:54.892Z,14.65
2023-03-03T13:14:18.557Z,15.88
2023-03-03T13:17:26.244Z,11.73
2023-03-03T13:20:50.683Z,13.73
2023-03-03T13:24:10.980Z,12.25
2023-03-03T13:27:20.448Z,12.80
2023-03-03T13:30:28.552Z,12.35
2023-03-03T13:33:35.064Z,11.68
2023-03-03T13:36:52.521Z,13.00
2023-03-03T13:40:01.765Z,12.05
2023-03-03T13:43:10.884Z,12.07
2023-03-03T13:46:21.929Z,11.98
2023-03-03T13:49:47.712Z,11.32
2023-03-03T13:53:16.516Z,11.98
2023-03-03T13:56:36.613Z,11.75
2023-03-03T13:59:47.893Z,12.35
2023-03-03T14:03:11.970Z,11.63
2023-03-03T14:06:19.626Z,12.27
2023-03-03T14:09:53.049Z,9.77
2023-03-03T14:13:05.812Z,10.90
2023-03-03T14:16:13.653Z,11.40
2023-03-03T14:19:19.724Z,12.00
2023-03-03T14:22:39.813Z,13.38
2023-03-03T14:26:13.656Z,12.02
2023-03-03T14:29:28.171Z,10.98
2023-03-03T14:32:44.536Z,11.65
2023-03-03T14:35:59.650Z,13.02
2023-03-03T14:42:34.098Z,12.18
2023-03-03T14:45:39.100Z,12.13
2023-03-03T14:48:51.837Z,12.02
2023-03-03T14:51:54.368Z,13.57
2023-03-03T14:55:05.363Z,14.43
2023-03-03T14:58:30.619Z,13.18
2023-03-03T15:01:36.575Z,13.43
2023-03-03T15:04:39.715Z,12.63
2023-03-03T15:07:42.090Z,10.90
2023-03-03T15:10:46.236Z,13.65
2023-03-03T15:13:48.767Z,12.60
2023-03-03T15:16:51.169Z,12.82
2023-03-03T15:20:13.952Z,14.75
2023-03-03T15:23:34.811Z,14.40
2023-03-03T15:26:53.722Z,15.13
2023-03-03T15:30:06.770Z,15.70
2023-03-03T15:33:24.252Z,14.80
2023-03-03T15:36:38.784Z,14.98
2023-03-03T15:40:04.502Z,13.80
2023-03-03T15:43:10.683Z,15.48
2023-03-03T15:46:17.665Z,14.88
2023-03-03T15:49:55.029Z,14.40
2023-03-03T15:53:23.245Z,15.35
2023-03-03T15:56:48.194Z,14.45
2023-03-03T16:00:00.004Z,13.15
2023-03-03T16:03:17.491Z,15.48
2023-03-03T16:06:47.701Z,14.55
2023-03-03T16:10:12.209Z,17.35
2023-03-03T16:16:38.392Z,16.55
2023-03-03T16:19:52.316Z,16.05
2023-03-03T16:23:32.420Z,12.10
2023-03-03T16:26:51.665Z,14.73
2023-03-03T16:30:29.808Z,14.68
2023-03-03T16:33:45.158Z,14.75
2023-03-03T16:37:17.034Z,15.50
2023-03-03T16:40:37.661Z,16.67
2023-03-03T16:44:01.011Z,16.45
2023-03-03T16:47:21.962Z,18.65
2023-03-03T16:50:48.838Z,17.17
2023-03-03T16:54:02.958Z,16.38
2023-03-03T16:57:33.566Z,16.25
2023-03-03T17:00:50.784Z,16.02
2023-03-03T17:04:03.767Z,16.38
2023-03-03T17:07:25.677Z,17.38
2023-03-03T17:10:50.745Z,17.10
2023-03-03T17:13:55.844Z,14.90
2023-03-03T17:17:02.530Z,15.43
2023-03-03T17:20:24.624Z,15.35
2023-03-03T17:23:42.689Z,16.00
2023-03-03T17:27:07.108Z,15.25
2023-03-03T17:33:29.595Z,18.13
2023-03-03T17:37:04.354Z,15.57
2023-03-03T17:43:20.771Z,17.90
2023-03-03T17:46:56.424Z,17.50
2023-03-03T17:50:10.618Z,17.65
2023-03-03T17:53:16.891Z,15.10
2023-03-03T17:56:33.081Z,15.13
2023-03-03T18:00:09.216Z,15.80
2023-03-03T18:03:41.023Z,13.93
2023-03-03T18:06:56.733Z,14.18
2023-03-03T18:10:10.477Z,14.30
2023-03-03T18:13:31.295Z,14.40
2023-03-03T18:17:00.490Z,15.02
2023-03-03T18:20:12.097Z,13.23
2023-03-03T18:23:34.061Z,15.50
2023-03-03T18:26:41.812Z,12.90
2023-03-03T18:30:20.735Z,14.50
2023-03-03T18:33:43.807Z,14.70
2023-03-03T18:37:01.423Z,13.82
2023-03-03T18:40:03.747Z,15.15
2023-03-03T18:43:43.721Z,14.57
2023-03-03T18:46:48.705Z,16.08
2023-03-03T18:49:55.766Z,14.32
2023-03-03T18:53:22.823Z,14.80
2023-03-03T18:57:00.686Z,14.32
2023-03-03T19:00:25.591Z,16.75
2023-03-03T19:03:33.700Z,15.20
2023-03-03T19:06:39.081Z,15.35
2023-03-03T19:10:03.003Z,15.82
2023-03-03T19:13:32.000Z,15.18
2023-03-03T19:16:37.578Z,18.70
2023-03-03T19:20:02.903Z,20.45
2023-03-03T19:23:07.706Z,14.45
2023-03-03T19:26:25.268Z,15.98
2023-03-03T19:29:46.061Z,17.75
2023-03-03T19:33:00.721Z,17.80
2023-03-03T19:36:22.168Z,18.08
2023-03-03T19:40:00.935Z,19.13
2023-03-03T19:43:05.972Z,17.58
2023-03-03T19:46:14.086Z,17.92
2023-03-03T19:49:25.361Z,16.25
2023-03-03T19:52:41.512Z,18.35
2023-03-03T19:56:14.556Z,16.92
2023-03-03T19:59:31.930Z,16.75
2023-03-03T20:02:47.223Z,19.08
2023-03-03T20:05:54.349Z,17.90
2023-03-03T20:09:04.974Z,19.17
2023-03-03T20:12:07.306Z,19.60
2023-03-03T20:15:18.995Z,20.00
2023-03-03T20:18:21.281Z,20.08
2023-03-03T20:21:42.021Z,20.67
2023-03-03T20:25:09.455Z,19.50
2023-03-03T20:28:38.920Z,18.45
2023-03-03T20:32:12.273Z,20.88
2023-03-03T20:35:46.102Z,19.58
2023-03-03T20:39:02.436Z,19.40
2023-03-03T20:42:10.778Z,18.45
2023-03-03T20:45:22.044Z,20.80
2023-03-03T20:48:39.425Z,18.13
2023-03-03T20:51:49.257Z,19.50
2023-03-03T20:55:15.291Z,21.23
2023-03-03T20:58:42.206Z,19.40
2023-03-03T21:01:57.076Z,20.02
2023-03-03T21:05:19.864Z,20.52
2023-03-03T21:08:52.897Z,18.30
2023-03-03T21:11:55.884Z,19.77
2023-03-03T21:15:35.811Z,19.83
2023-03-03T21:18:39.107Z,19.70
2023-03-03T21:21:45.352Z,20.75
2023-03-03T21:24:51.907Z,18.25
2023-03-03T21:27:58.999Z,19.42
2023-03-03T21:31:08.274Z,19.77
2023-03-03T21:34:40.483Z,18.98
2023-03-03T21:37:51.827Z,20.52
2023-03-03T21:41:01.645Z,19.42
2023-03-03T21:44:50.064Z,20.27
2023-03-03T21:47:55.164Z,19.70
2023-03-03T21:51:00.146Z,19.33
2023-03-03T21:54:02.493Z,19.13
2023-03-03T21:57:04.972Z,19.13
2023-03-03T22:00:12.095Z,20.35
2023-03-03T22:03:15.523Z,18.85
2023-03-03T22:06:17.918Z,19.83
2023-03-03T22:09:20.766Z,19.90
2023-03-03T22:12:23.105Z,19.80
2023-03-03T22:15:25.552Z,18.35
2023-03-03T22:18:27.864Z,18.58
2023-03-03T22:21:31.089Z,19.00
2023-03-03T22:24:33.607Z,17.95
2023-03-03T22:27:35.941Z,19.70
2023-03-03T22:30:38.404Z,21.02
2023-03-03T22:33:40.834Z,21.33
2023-03-03T22:36:43.211Z,20.20
2023-03-03T22:39:45.616Z,20.05
2023-03-03T22:42:47.936Z,20.17
2023-03-03T22:45:50.651Z,21.15
2023-03-03T22:48:53.212Z,19.52
2023-03-03T22:51:58.803Z,18.63
2023-03-03T22:55:01.202Z,20.75
2023-03-03T22:58:05.479Z,19.08
2023-03-03T23:01:08.869Z,18.95
2023-03-03T23:04:11.262Z,19.02
2023-03-03T23:07:13.615Z,18.23
2023-03-03T23:10:16.029Z,18.95
2023-03-03T23:13:18.447Z,17.58
2023-03-03T23:16:20.914Z,17.77
2023-03-03T23:19:23.336Z,16.92
2023-03-03T23:22:25.769Z,17.65
2023-03-03T23:25:29.046Z,17.15
2023-03-03T23:28:31.711Z,14.65
2023-03-03T23:31:34.140Z,17.05
2023-03-03T23:34:36.628Z,16.70
2023-03-03T23:37:38.985Z,16.73
2023-03-03T23:40:42.506Z,15.68
2023-03-03T23:43:44.914Z,14.98
2023-03-03T23:46:47.294Z,15.23
2023-03-03T23:49:49.584Z,15.82
2023-03-03T23:52:52.287Z,14.82
2023-03-03T23:55:54.640Z,16.05
2023-03-03T23:58:56.988Z,14.60
